PWSweather.com
Personal Weather Stations
Station Observations
MENWDWX1
Menstrie, ScotlandGB

MenstrieScotlandGB

Lat: 56.148322, Lon: -3.85483

Elevation: 62

Station Type: Davis Vantage Pro 2

High Low Average
Temperature 65.3°F18.5°C 50.0°F10.0°C 58.6°F14.8°C
Dew Point 57.9°F14.4°C 45.0°F7.2°C 50.5°F10.3°C
Winds 11.5 mph 18.5 kmh Calm Calm 4.0 mph SW6.4 kmh SW
Wind Gusts 18.4 mph29.6 kmh -- 7.0 mph11.3 kmh
Humidity 93% 53% 76%
Pressure 29.66 in1004.4 mb 29.52 in999.7 mb -
Precipitation 0.22 in5.6 mm - -
Hour Temp Dew Point Humidity Winds Wind Gusts Pressure Precip Precip Rate Daily Precip Total
12:00 AM 59.9°F15.5°C 57.9°F14.4°C 93% Calm Calm -- 29.53 in1000.0 mb - 0.00 in0.0 mm 0.02 in0.5 mm
12:05 AM 59.9°F15.5°C 57.9°F14.4°C 93% Calm Calm -- 29.53 in1000.0 mb - 0.00 in0.0 mm 0.02 in0.5 mm
12:10 AM 59.9°F15.5°C 57.9°F14.4°C 93% Calm Calm -- 29.53 in1000.0 mb - 0.00 in0.0 mm 0.02 in0.5 mm
12:15 AM 59.8°F15.4°C 57.8°F14.3°C 93% Calm Calm -- 29.53 in1000.0 mb - 0.00 in0.0 mm 0.02 in0.5 mm
12:20 AM 59.8°F15.4°C 57.8°F14.3°C 93% Calm Calm -- 29.53 in1000.0 mb - 0.00 in0.0 mm 0.02 in0.5 mm
12:25 AM 59.8°F15.4°C 57.8°F14.3°C 93% Calm Calm -- 29.52 in999.7 mb - 0.00 in0.0 mm 0.02 in0.5 mm
12:30 AM 59.8°F15.4°C 57.8°F14.3°C 93% Calm Calm 3.5 mph5.6 kmh 29.52 in999.7 mb - 0.00 in0.0 mm 0.02 in0.5 mm
12:35 AM 59.9°F15.5°C 57.9°F14.4°C 93% Calm Calm -- 29.52 in999.7 mb - 0.00 in0.0 mm 0.02 in0.5 mm
12:40 AM 59.9°F15.5°C 57.9°F14.4°C 93% Calm Calm -- 29.52 in999.7 mb - 0.00 in0.0 mm 0.02 in0.5 mm
12:45 AM 59.9°F15.5°C 57.9°F14.4°C 93% Calm Calm -- 29.52 in999.7 mb - 0.00 in0.0 mm 0.02 in0.5 mm
12:50 AM 59.9°F15.5°C 57.9°F14.4°C 93% Calm Calm -- 29.52 in999.7 mb - 0.00 in0.0 mm 0.02 in0.5 mm
12:55 AM 59.8°F15.4°C 57.8°F14.3°C 93% Calm Calm -- 29.52 in999.7 mb - 0.00 in0.0 mm 0.02 in0.5 mm
01:00 AM 59.8°F15.4°C 57.8°F14.3°C 93% 1.2 mph SSE1.9 kmh SSE 2.3 mph3.7 kmh 29.52 in999.7 mb - 0.01 in0.3 mm 0.03 in0.8 mm
01:05 AM 59.8°F15.4°C 57.8°F14.3°C 93% Calm Calm 1.2 mph1.9 kmh 29.52 in999.7 mb - 0.01 in0.3 mm 0.03 in0.8 mm
01:10 AM 59.8°F15.4°C 57.8°F14.3°C 93% 2.3 mph SW3.7 kmh SW 3.5 mph5.6 kmh 29.52 in999.7 mb - 0.00 in0.0 mm 0.03 in0.8 mm
01:15 AM 59.8°F15.4°C 57.8°F14.3°C 93% 2.3 mph SW3.7 kmh SW 3.5 mph5.6 kmh 29.52 in999.7 mb - 0.00 in0.0 mm 0.03 in0.8 mm
01:20 AM 59.8°F15.4°C 57.8°F14.3°C 93% 1.2 mph SW1.9 kmh SW 3.5 mph5.6 kmh 29.52 in999.7 mb - 0.01 in0.3 mm 0.03 in0.8 mm
01:25 AM 59.8°F15.4°C 57.8°F14.3°C 93% Calm Calm -- 29.52 in999.7 mb - 0.01 in0.3 mm 0.03 in0.8 mm
01:30 AM 59.8°F15.4°C 57.8°F14.3°C 93% 1.2 mph SW1.9 kmh SW 2.3 mph3.7 kmh 29.52 in999.7 mb - 0.00 in0.0 mm 0.03 in0.8 mm
01:35 AM 59.7°F15.4°C 57.7°F14.3°C 93% 1.2 mph SW1.9 kmh SW 3.5 mph5.6 kmh 29.52 in999.7 mb - 0.00 in0.0 mm 0.03 in0.8 mm
01:40 AM 59.7°F15.4°C 57.7°F14.3°C 93% 1.2 mph SW1.9 kmh SW 2.3 mph3.7 kmh 29.52 in999.7 mb - 0.00 in0.0 mm 0.03 in0.8 mm
01:45 AM 59.7°F15.4°C 57.7°F14.3°C 93% 2.3 mph SW3.7 kmh SW 4.6 mph7.4 kmh 29.52 in999.7 mb - 0.01 in0.3 mm 0.04 in1.0 mm
01:50 AM 59.6°F15.3°C 57.6°F14.2°C 93% 2.3 mph SW3.7 kmh SW 3.5 mph5.6 kmh 29.52 in999.7 mb - 0.02 in0.5 mm 0.05 in1.3 mm
01:55 AM 59.6°F15.3°C 57.6°F14.2°C 93% 2.3 mph WSW3.7 kmh WSW 3.5 mph5.6 kmh 29.52 in999.7 mb - 0.02 in0.5 mm 0.07 in1.8 mm
02:00 AM 59.5°F15.3°C 57.5°F14.2°C 93% 2.3 mph WSW3.7 kmh WSW 5.8 mph9.3 kmh 29.52 in999.7 mb - 0.02 in0.5 mm 0.08 in2.0 mm
02:05 AM 59.3°F15.2°C 57.3°F14.1°C 93% 2.3 mph W3.7 kmh W 3.5 mph5.6 kmh 29.52 in999.7 mb - 0.05 in1.3 mm 0.12 in3.0 mm
02:10 AM 59.0°F15.0°C 57.0°F13.9°C 93% 3.5 mph WSW5.6 kmh WSW 6.9 mph11.1 kmh 29.52 in999.7 mb - 0.03 in0.8 mm 0.15 in3.8 mm
02:15 AM 58.7°F14.8°C 56.7°F13.7°C 93% 8.1 mph WSW13.0 kmh WSW 13.8 mph22.2 kmh 29.52 in999.7 mb - 0.01 in0.3 mm 0.16 in4.1 mm
02:20 AM 58.2°F14.6°C 56.2°F13.4°C 93% 9.2 mph W14.8 kmh W 15.0 mph24.1 kmh 29.52 in999.7 mb - 0.02 in0.5 mm 0.17 in4.3 mm
02:25 AM 57.5°F14.2°C 55.2°F12.9°C 92% 8.1 mph W13.0 kmh W 11.5 mph18.5 kmh 29.53 in1000.0 mb - 0.01 in0.3 mm 0.17 in4.3 mm
02:30 AM 57.0°F13.9°C 54.7°F12.6°C 92% 10.4 mph W16.7 kmh W 12.7 mph20.4 kmh 29.53 in1000.0 mb - 0.01 in0.3 mm 0.18 in4.6 mm
02:35 AM 56.7°F13.7°C 54.4°F12.4°C 92% 6.9 mph W11.1 kmh W 10.4 mph16.7 kmh 29.52 in999.7 mb - 0.00 in0.0 mm 0.18 in4.6 mm
02:40 AM 56.5°F13.6°C 54.5°F12.5°C 93% 6.9 mph WSW11.1 kmh WSW 11.5 mph18.5 kmh 29.52 in999.7 mb - 0.00 in0.0 mm 0.18 in4.6 mm
02:45 AM 56.3°F13.5°C 54.3°F12.4°C 93% 10.4 mph W16.7 kmh W 11.5 mph18.5 kmh 29.52 in999.7 mb - 0.00 in0.0 mm 0.18 in4.6 mm
02:50 AM 56.1°F13.4°C 54.1°F12.3°C 93% 8.1 mph W13.0 kmh W 12.7 mph20.4 kmh 29.52 in999.7 mb - 0.00 in0.0 mm 0.18 in4.6 mm
02:55 AM 56.0°F13.3°C 54.0°F12.2°C 93% 5.8 mph WSW9.3 kmh WSW 10.4 mph16.7 kmh 29.52 in999.7 mb - 0.00 in0.0 mm 0.18 in4.6 mm
03:00 AM 56.0°F13.3°C 54.0°F12.2°C 93% 6.9 mph WSW11.1 kmh WSW 12.7 mph20.4 kmh 29.52 in999.7 mb - 0.02 in0.5 mm 0.20 in5.1 mm
03:05 AM 55.9°F13.3°C 53.9°F12.2°C 93% 5.8 mph WSW9.3 kmh WSW 13.8 mph22.2 kmh 29.52 in999.7 mb - 0.01 in0.3 mm 0.21 in5.3 mm
03:10 AM 55.8°F13.2°C 53.8°F12.1°C 93% 6.9 mph WSW11.1 kmh WSW 10.4 mph16.7 kmh 29.52 in999.7 mb - 0.01 in0.3 mm 0.21 in5.3 mm
03:15 AM 55.7°F13.2°C 53.7°F12.1°C 93% 5.8 mph WSW9.3 kmh WSW 8.1 mph13.0 kmh 29.52 in999.7 mb - 0.00 in0.0 mm 0.21 in5.3 mm
03:20 AM 55.6°F13.1°C 53.6°F12.0°C 93% 8.1 mph WSW13.0 kmh WSW 12.7 mph20.4 kmh 29.53 in1000.0 mb - 0.00 in0.0 mm 0.21 in5.3 mm
03:25 AM 55.5°F13.1°C 53.5°F11.9°C 93% 3.5 mph W5.6 kmh W 3.5 mph5.6 kmh 29.53 in1000.0 mb - 0.00 in0.0 mm 0.21 in5.3 mm
03:30 AM 55.5°F13.1°C 53.5°F11.9°C 93% 4.6 mph WSW7.4 kmh WSW 6.9 mph11.1 kmh 29.53 in1000.0 mb - 0.00 in0.0 mm 0.21 in5.3 mm
03:35 AM 55.5°F13.1°C 53.5°F11.9°C 93% 5.8 mph WSW9.3 kmh WSW 10.4 mph16.7 kmh 29.53 in1000.0 mb - 0.00 in0.0 mm 0.21 in5.3 mm
03:40 AM 55.4°F13.0°C 53.4°F11.9°C 93% 4.6 mph WSW7.4 kmh WSW 5.8 mph9.3 kmh 29.53 in1000.0 mb - 0.00 in0.0 mm 0.21 in5.3 mm
03:45 AM 55.3°F12.9°C 53.3°F11.8°C 93% 2.3 mph SW3.7 kmh SW 3.5 mph5.6 kmh 29.53 in1000.0 mb - 0.00 in0.0 mm 0.21 in5.3 mm
03:50 AM 55.3°F12.9°C 53.3°F11.8°C 93% 3.5 mph WSW5.6 kmh WSW 4.6 mph7.4 kmh 29.53 in1000.0 mb - 0.00 in0.0 mm 0.21 in5.3 mm
03:55 AM 55.3°F12.9°C 53.3°F11.8°C 93% 2.3 mph WSW3.7 kmh WSW 6.9 mph11.1 kmh 29.54 in1000.3 mb - 0.00 in0.0 mm 0.21 in5.3 mm
04:00 AM 55.2°F12.9°C 53.2°F11.8°C 93% 2.3 mph W3.7 kmh W 5.8 mph9.3 kmh 29.54 in1000.3 mb - 0.00 in0.0 mm 0.21 in5.3 mm
04:05 AM 55.2°F12.9°C 53.2°F11.8°C 93% 4.6 mph WSW7.4 kmh WSW 9.2 mph14.8 kmh 29.53 in1000.0 mb - 0.00 in0.0 mm 0.21 in5.3 mm
04:10 AM 55.2°F12.9°C 53.2°F11.8°C 93% 2.3 mph W3.7 kmh W 6.9 mph11.1 kmh 29.54 in1000.3 mb - 0.00 in0.0 mm 0.21 in5.3 mm
04:15 AM 55.1°F12.8°C 53.1°F11.7°C 93% 3.5 mph WSW5.6 kmh WSW 5.8 mph9.3 kmh 29.54 in1000.3 mb - 0.00 in0.0 mm 0.21 in5.3 mm
04:20 AM 55.0°F12.8°C 53.0°F11.7°C 93% 2.3 mph WSW3.7 kmh WSW 3.5 mph5.6 kmh 29.54 in1000.3 mb - 0.00 in0.0 mm 0.21 in5.3 mm
04:25 AM 55.0°F12.8°C 52.7°F11.5°C 92% 2.3 mph WSW3.7 kmh WSW 3.5 mph5.6 kmh 29.54 in1000.3 mb - 0.00 in0.0 mm 0.21 in5.3 mm
04:30 AM 54.9°F12.7°C 52.6°F11.4°C 92% Calm Calm -- 29.54 in1000.3 mb - 0.00 in0.0 mm 0.21 in5.3 mm
04:35 AM 55.0°F12.8°C 52.7°F11.5°C 92% 2.3 mph WSW3.7 kmh WSW 3.5 mph5.6 kmh 29.54 in1000.3 mb - 0.00 in0.0 mm 0.21 in5.3 mm
04:40 AM 55.0°F12.8°C 52.7°F11.5°C 92% 2.3 mph WSW3.7 kmh WSW 4.6 mph7.4 kmh 29.54 in1000.3 mb - 0.00 in0.0 mm 0.21 in5.3 mm
04:45 AM 54.9°F12.7°C 52.6°F11.4°C 92% 2.3 mph WSW3.7 kmh WSW 3.5 mph5.6 kmh 29.54 in1000.3 mb - 0.00 in0.0 mm 0.21 in5.3 mm
04:50 AM 54.9°F12.7°C 52.6°F11.4°C 92% 1.2 mph W1.9 kmh W 6.9 mph11.1 kmh 29.54 in1000.3 mb - 0.00 in0.0 mm 0.21 in5.3 mm
04:55 AM 54.9°F12.7°C 52.6°F11.4°C 92% 3.5 mph W5.6 kmh W 8.1 mph13.0 kmh 29.54 in1000.3 mb - 0.00 in0.0 mm 0.21 in5.3 mm
05:00 AM 54.8°F12.7°C 52.5°F11.4°C 92% 2.3 mph W3.7 kmh W 9.2 mph14.8 kmh 29.55 in1000.7 mb - 0.00 in0.0 mm 0.21 in5.3 mm
05:05 AM 54.8°F12.7°C 52.5°F11.4°C 92% 1.2 mph W1.9 kmh W 3.5 mph5.6 kmh 29.55 in1000.7 mb - 0.00 in0.0 mm 0.21 in5.3 mm
05:10 AM 54.8°F12.7°C 52.5°F11.4°C 92% 3.5 mph W5.6 kmh W 3.5 mph5.6 kmh 29.55 in1000.7 mb - 0.00 in0.0 mm 0.21 in5.3 mm
05:15 AM 54.8°F12.7°C 52.5°F11.4°C 92% 1.2 mph WNW1.9 kmh WNW 2.3 mph3.7 kmh 29.55 in1000.7 mb - 0.00 in0.0 mm 0.21 in5.3 mm
05:20 AM 54.7°F12.6°C 52.4°F11.3°C 92% 2.3 mph W3.7 kmh W 5.8 mph9.3 kmh 29.55 in1000.7 mb - 0.00 in0.0 mm 0.21 in5.3 mm
05:25 AM 54.7°F12.6°C 52.4°F11.3°C 92% 2.3 mph W3.7 kmh W 6.9 mph11.1 kmh 29.55 in1000.7 mb - 0.00 in0.0 mm 0.21 in5.3 mm
05:30 AM 54.7°F12.6°C 52.4°F11.3°C 92% 3.5 mph W5.6 kmh W 6.9 mph11.1 kmh 29.55 in1000.7 mb - 0.00 in0.0 mm 0.21 in5.3 mm
05:35 AM 54.6°F12.6°C 52.3°F11.3°C 92% 3.5 mph W5.6 kmh W 5.8 mph9.3 kmh 29.55 in1000.7 mb - 0.00 in0.0 mm 0.21 in5.3 mm
05:40 AM 54.6°F12.6°C 52.3°F11.3°C 92% 2.3 mph WSW3.7 kmh WSW 3.5 mph5.6 kmh 29.56 in1001.0 mb - 0.00 in0.0 mm 0.21 in5.3 mm
05:45 AM 54.6°F12.6°C 52.3°F11.3°C 92% 2.3 mph W3.7 kmh W 5.8 mph9.3 kmh 29.55 in1000.7 mb - 0.00 in0.0 mm 0.21 in5.3 mm
05:50 AM 54.5°F12.5°C 52.2°F11.2°C 92% 1.2 mph W1.9 kmh W 2.3 mph3.7 kmh 29.55 in1000.7 mb - 0.00 in0.0 mm 0.21 in5.3 mm
05:55 AM 54.6°F12.6°C 52.3°F11.3°C 92% 3.5 mph WNW5.6 kmh WNW 8.1 mph13.0 kmh 29.55 in1000.7 mb - 0.00 in0.0 mm 0.21 in5.3 mm
06:00 AM 54.5°F12.5°C 52.2°F11.2°C 92% 3.5 mph WNW5.6 kmh WNW 4.6 mph7.4 kmh 29.56 in1001.0 mb - 0.00 in0.0 mm 0.21 in5.3 mm
06:05 AM 54.4°F12.4°C 52.1°F11.2°C 92% 3.5 mph W5.6 kmh W 6.9 mph11.1 kmh 29.56 in1001.0 mb - 0.00 in0.0 mm 0.21 in5.3 mm
06:10 AM 54.4°F12.4°C 52.1°F11.2°C 92% 2.3 mph W3.7 kmh W 5.8 mph9.3 kmh 29.56 in1001.0 mb - 0.00 in0.0 mm 0.21 in5.3 mm
06:15 AM 54.4°F12.4°C 52.1°F11.2°C 92% 4.6 mph W7.4 kmh W 8.1 mph13.0 kmh 29.56 in1001.0 mb - 0.00 in0.0 mm 0.21 in5.3 mm
06:20 AM 54.3°F12.4°C 52.0°F11.1°C 92% 3.5 mph WSW5.6 kmh WSW 3.5 mph5.6 kmh 29.56 in1001.0 mb - 0.00 in0.0 mm 0.21 in5.3 mm
06:25 AM 54.2°F12.3°C 51.9°F11.1°C 92% 2.3 mph W3.7 kmh W 5.8 mph9.3 kmh 29.57 in1001.4 mb - 0.00 in0.0 mm 0.21 in5.3 mm
06:30 AM 54.2°F12.3°C 51.9°F11.1°C 92% 2.3 mph W3.7 kmh W 10.4 mph16.7 kmh 29.57 in1001.4 mb - 0.00 in0.0 mm 0.21 in5.3 mm
06:35 AM 54.1°F12.3°C 51.5°F10.8°C 91% 2.3 mph W3.7 kmh W 9.2 mph14.8 kmh 29.57 in1001.4 mb - 0.00 in0.0 mm 0.21 in5.3 mm
06:40 AM 54.1°F12.3°C 51.5°F10.8°C 91% 2.3 mph WNW3.7 kmh WNW 9.2 mph14.8 kmh 29.57 in1001.4 mb - 0.00 in0.0 mm 0.21 in5.3 mm
06:45 AM 54.2°F12.3°C 51.6°F10.9°C 91% 2.3 mph WNW3.7 kmh WNW 8.1 mph13.0 kmh 29.57 in1001.4 mb - 0.00 in0.0 mm 0.21 in5.3 mm
06:50 AM 54.2°F12.3°C 51.6°F10.9°C 91% 3.5 mph W5.6 kmh W 5.8 mph9.3 kmh 29.57 in1001.4 mb - 0.00 in0.0 mm 0.21 in5.3 mm
06:55 AM 54.2°F12.3°C 51.6°F10.9°C 91% 3.5 mph W5.6 kmh W 6.9 mph11.1 kmh 29.57 in1001.4 mb - 0.00 in0.0 mm 0.21 in5.3 mm
07:00 AM 54.2°F12.3°C 51.6°F10.9°C 91% 2.3 mph W3.7 kmh W 5.8 mph9.3 kmh 29.57 in1001.4 mb - 0.00 in0.0 mm 0.21 in5.3 mm
07:05 AM 54.2°F12.3°C 51.6°F10.9°C 91% 3.5 mph W5.6 kmh W 3.5 mph5.6 kmh 29.57 in1001.4 mb - 0.00 in0.0 mm 0.21 in5.3 mm
07:10 AM 54.4°F12.4°C 51.8°F11.0°C 91% 5.8 mph WSW9.3 kmh WSW 9.2 mph14.8 kmh 29.57 in1001.4 mb - 0.00 in0.0 mm 0.21 in5.3 mm
07:15 AM 54.5°F12.5°C 51.9°F11.1°C 91% 4.6 mph W7.4 kmh W 8.1 mph13.0 kmh 29.57 in1001.4 mb - 0.00 in0.0 mm 0.21 in5.3 mm
07:20 AM 54.6°F12.6°C 52.0°F11.1°C 91% 6.9 mph W11.1 kmh W 11.5 mph18.5 kmh 29.57 in1001.4 mb - 0.00 in0.0 mm 0.21 in5.3 mm
07:25 AM 54.5°F12.5°C 51.6°F10.9°C 90% 4.6 mph WSW7.4 kmh WSW 6.9 mph11.1 kmh 29.57 in1001.4 mb - 0.00 in0.0 mm 0.21 in5.3 mm
07:30 AM 54.7°F12.6°C 51.8°F11.0°C 90% 5.8 mph W9.3 kmh W 8.1 mph13.0 kmh 29.57 in1001.4 mb - 0.00 in0.0 mm 0.21 in5.3 mm
07:35 AM 54.8°F12.7°C 51.9°F11.1°C 90% 5.8 mph WSW9.3 kmh WSW 11.5 mph18.5 kmh 29.57 in1001.4 mb - 0.00 in0.0 mm 0.21 in5.3 mm
07:40 AM 55.0°F12.8°C 52.1°F11.2°C 90% 3.5 mph W5.6 kmh W 11.5 mph18.5 kmh 29.57 in1001.4 mb - 0.00 in0.0 mm 0.21 in5.3 mm
07:45 AM 55.4°F13.0°C 52.6°F11.4°C 90% 4.6 mph W7.4 kmh W 10.4 mph16.7 kmh 29.57 in1001.4 mb - 0.00 in0.0 mm 0.21 in5.3 mm
07:50 AM 56.1°F13.4°C 53.2°F11.8°C 90% 5.8 mph WSW9.3 kmh WSW 9.2 mph14.8 kmh 29.57 in1001.4 mb - 0.00 in0.0 mm 0.21 in5.3 mm
07:55 AM 57.2°F14.0°C 54.3°F12.4°C 90% 3.5 mph W5.6 kmh W 6.9 mph11.1 kmh 29.57 in1001.4 mb - 0.00 in0.0 mm 0.21 in5.3 mm
08:00 AM 58.0°F14.4°C 54.2°F12.3°C 87% 6.9 mph W11.1 kmh W 10.4 mph16.7 kmh 29.57 in1001.4 mb - 0.00 in0.0 mm 0.21 in5.3 mm
08:05 AM 58.0°F14.4°C 52.9°F11.6°C 83% 6.9 mph WSW11.1 kmh WSW 9.2 mph14.8 kmh 29.58 in1001.7 mb - 0.00 in0.0 mm 0.21 in5.3 mm
08:10 AM 57.9°F14.4°C 53.1°F11.7°C 84% 4.6 mph WSW7.4 kmh WSW 9.2 mph14.8 kmh 29.58 in1001.7 mb - 0.00 in0.0 mm 0.21 in5.3 mm
08:15 AM 58.1°F14.5°C 53.0°F11.7°C 83% 6.9 mph WSW11.1 kmh WSW 10.4 mph16.7 kmh 29.58 in1001.7 mb - 0.00 in0.0 mm 0.21 in5.3 mm
08:20 AM 57.9°F14.4°C 52.4°F11.3°C 82% 6.9 mph WSW11.1 kmh WSW 11.5 mph18.5 kmh 29.58 in1001.7 mb - 0.00 in0.0 mm 0.21 in5.3 mm
08:25 AM 57.7°F14.3°C 52.2°F11.2°C 82% 5.8 mph WSW9.3 kmh WSW 11.5 mph18.5 kmh 29.58 in1001.7 mb - 0.00 in0.0 mm 0.21 in5.3 mm
08:30 AM 57.6°F14.2°C 51.8°F11.0°C 81% 4.6 mph WSW7.4 kmh WSW 10.4 mph16.7 kmh 29.58 in1001.7 mb - 0.00 in0.0 mm 0.21 in5.3 mm
08:35 AM 57.4°F14.1°C 52.0°F11.1°C 82% 6.9 mph WSW11.1 kmh WSW 11.5 mph18.5 kmh 29.58 in1001.7 mb - 0.00 in0.0 mm 0.21 in5.3 mm
08:40 AM 57.8°F14.3°C 52.4°F11.3°C 82% 4.6 mph W7.4 kmh W 8.1 mph13.0 kmh 29.58 in1001.7 mb - 0.00 in0.0 mm 0.21 in5.3 mm
08:45 AM 58.2°F14.6°C 52.4°F11.3°C 81% 3.5 mph WSW5.6 kmh WSW 10.4 mph16.7 kmh 29.58 in1001.7 mb - 0.00 in0.0 mm 0.21 in5.3 mm
08:50 AM 58.3°F14.6°C 52.2°F11.2°C 80% 6.9 mph WSW11.1 kmh WSW 9.2 mph14.8 kmh 29.58 in1001.7 mb - 0.00 in0.0 mm 0.21 in5.3 mm
08:55 AM 58.3°F14.6°C 52.2°F11.2°C 80% 6.9 mph WSW11.1 kmh WSW 11.5 mph18.5 kmh 29.58 in1001.7 mb - 0.00 in0.0 mm 0.21 in5.3 mm
09:00 AM 58.3°F14.6°C 51.5°F10.8°C 78% 8.1 mph WSW13.0 kmh WSW 11.5 mph18.5 kmh 29.58 in1001.7 mb - 0.00 in0.0 mm 0.21 in5.3 mm
09:05 AM 58.5°F14.7°C 51.6°F10.9°C 78% 2.3 mph SW3.7 kmh SW 6.9 mph11.1 kmh 29.58 in1001.7 mb - 0.00 in0.0 mm 0.21 in5.3 mm
09:10 AM 58.8°F14.9°C 52.3°F11.3°C 79% 5.8 mph WSW9.3 kmh WSW 11.5 mph18.5 kmh 29.58 in1001.7 mb - 0.00 in0.0 mm 0.21 in5.3 mm
09:15 AM 59.1°F15.1°C 51.9°F11.1°C 77% 4.6 mph WSW7.4 kmh WSW 9.2 mph14.8 kmh 29.57 in1001.4 mb - 0.00 in0.0 mm 0.21 in5.3 mm
09:20 AM 59.3°F15.2°C 52.5°F11.4°C 78% 6.9 mph WSW11.1 kmh WSW 9.2 mph14.8 kmh 29.57 in1001.4 mb - 0.00 in0.0 mm 0.21 in5.3 mm
09:25 AM 59.6°F15.3°C 51.7°F10.9°C 75% 6.9 mph WSW11.1 kmh WSW 10.4 mph16.7 kmh 29.57 in1001.4 mb - 0.00 in0.0 mm 0.21 in5.3 mm
09:30 AM 60.1°F15.6°C 52.5°F11.4°C 76% 8.1 mph WSW13.0 kmh WSW 11.5 mph18.5 kmh 29.57 in1001.4 mb - 0.00 in0.0 mm 0.21 in5.3 mm
09:35 AM 60.4°F15.8°C 51.3°F10.7°C 72% 8.1 mph WSW13.0 kmh WSW 13.8 mph22.2 kmh 29.56 in1001.0 mb - 0.00 in0.0 mm 0.21 in5.3 mm
09:40 AM 60.6°F15.9°C 51.9°F11.1°C 73% 9.2 mph WSW14.8 kmh WSW 12.7 mph20.4 kmh 29.57 in1001.4 mb - 0.00 in0.0 mm 0.21 in5.3 mm
09:45 AM 61.4°F16.3°C 52.0°F11.1°C 71% 5.8 mph WSW9.3 kmh WSW 9.2 mph14.8 kmh 29.57 in1001.4 mb - 0.00 in0.0 mm 0.21 in5.3 mm
09:50 AM 61.9°F16.6°C 52.0°F11.1°C 70% 6.9 mph WSW11.1 kmh WSW 15.0 mph24.1 kmh 29.57 in1001.4 mb - 0.00 in0.0 mm 0.21 in5.3 mm
09:55 AM 62.0°F16.7°C 51.8°F11.0°C 69% 6.9 mph SW11.1 kmh SW 12.7 mph20.4 kmh 29.57 in1001.4 mb - 0.00 in0.0 mm 0.21 in5.3 mm
10:00 AM 61.2°F16.2°C 50.9°F10.5°C 69% 8.1 mph WSW13.0 kmh WSW 12.7 mph20.4 kmh 29.58 in1001.7 mb - 0.00 in0.0 mm 0.21 in5.3 mm
10:05 AM 60.9°F16.1°C 51.0°F10.6°C 70% 6.9 mph WSW11.1 kmh WSW 10.4 mph16.7 kmh 29.58 in1001.7 mb - 0.00 in0.0 mm 0.21 in5.3 mm
10:10 AM 60.9°F16.1°C 51.0°F10.6°C 70% 6.9 mph WSW11.1 kmh WSW 11.5 mph18.5 kmh 29.57 in1001.4 mb - 0.00 in0.0 mm 0.21 in5.3 mm
10:15 AM 60.7°F15.9°C 50.9°F10.5°C 70% 6.9 mph WSW11.1 kmh WSW 10.4 mph16.7 kmh 29.57 in1001.4 mb - 0.00 in0.0 mm 0.21 in5.3 mm
10:20 AM 60.3°F15.7°C 50.9°F10.5°C 71% 9.2 mph WSW14.8 kmh WSW 17.3 mph27.8 kmh 29.58 in1001.7 mb - 0.00 in0.0 mm 0.21 in5.3 mm
10:25 AM 60.2°F15.7°C 50.3°F10.2°C 70% 11.5 mph WSW18.5 kmh WSW 15.0 mph24.1 kmh 29.58 in1001.7 mb - 0.00 in0.0 mm 0.21 in5.3 mm
10:30 AM 60.6°F15.9°C 50.4°F10.2°C 69% 10.4 mph WSW16.7 kmh WSW 17.3 mph27.8 kmh 29.58 in1001.7 mb - 0.00 in0.0 mm 0.21 in5.3 mm
10:35 AM 61.3°F16.3°C 50.3°F10.2°C 67% 5.8 mph WSW9.3 kmh WSW 11.5 mph18.5 kmh 29.58 in1001.7 mb - 0.00 in0.0 mm 0.21 in5.3 mm
10:40 AM 62.2°F16.8°C 50.2°F10.1°C 65% 10.4 mph WSW16.7 kmh WSW 12.7 mph20.4 kmh 29.58 in1001.7 mb - 0.00 in0.0 mm 0.21 in5.3 mm
10:45 AM 62.8°F17.1°C 50.9°F10.5°C 65% 8.1 mph W13.0 kmh W 11.5 mph18.5 kmh 29.58 in1001.7 mb - 0.00 in0.0 mm 0.21 in5.3 mm
10:50 AM 63.4°F17.4°C 50.6°F10.3°C 63% 9.2 mph SW14.8 kmh SW 13.8 mph22.2 kmh 29.58 in1001.7 mb - 0.00 in0.0 mm 0.21 in5.3 mm
10:55 AM 63.4°F17.4°C 50.1°F10.1°C 62% 11.5 mph WSW18.5 kmh WSW 13.8 mph22.2 kmh 29.58 in1001.7 mb - 0.01 in0.3 mm 0.22 in5.6 mm
11:00 AM 63.1°F17.3°C 50.3°F10.2°C 63% 9.2 mph WSW14.8 kmh WSW 11.5 mph18.5 kmh 29.58 in1001.7 mb - 0.00 in0.0 mm 0.22 in5.6 mm
11:05 AM 63.0°F17.2°C 49.3°F9.6°C 61% 5.8 mph WSW9.3 kmh WSW 11.5 mph18.5 kmh 29.59 in1002.0 mb - 0.00 in0.0 mm 0.22 in5.6 mm
11:10 AM 63.2°F17.3°C 50.0°F10.0°C 62% 8.1 mph W13.0 kmh W 15.0 mph24.1 kmh 29.59 in1002.0 mb - 0.00 in0.0 mm 0.22 in5.6 mm
11:15 AM 63.8°F17.7°C 50.5°F10.3°C 62% 9.2 mph WSW14.8 kmh WSW 18.4 mph29.6 kmh 29.59 in1002.0 mb - 0.00 in0.0 mm 0.22 in5.6 mm
11:20 AM 63.8°F17.7°C 49.6°F9.8°C 60% 6.9 mph WSW11.1 kmh WSW 13.8 mph22.2 kmh 29.59 in1002.0 mb - 0.00 in0.0 mm 0.22 in5.6 mm
11:25 AM 63.7°F17.6°C 50.0°F10.0°C 61% 10.4 mph WSW16.7 kmh WSW 11.5 mph18.5 kmh 29.59 in1002.0 mb - 0.00 in0.0 mm 0.22 in5.6 mm
11:30 AM 63.3°F17.4°C 49.7°F9.8°C 61% 9.2 mph WSW14.8 kmh WSW 16.1 mph25.9 kmh 29.59 in1002.0 mb - 0.00 in0.0 mm 0.22 in5.6 mm
11:35 AM 63.1°F17.3°C 48.9°F9.4°C 60% 11.5 mph WSW18.5 kmh WSW 15.0 mph24.1 kmh 29.59 in1002.0 mb - 0.00 in0.0 mm 0.22 in5.6 mm
11:40 AM 62.6°F17.0°C 49.0°F9.4°C 61% 8.1 mph WSW13.0 kmh WSW 13.8 mph22.2 kmh 29.59 in1002.0 mb - 0.00 in0.0 mm 0.22 in5.6 mm
11:45 AM 62.4°F16.9°C 49.2°F9.6°C 62% 9.2 mph WSW14.8 kmh WSW 12.7 mph20.4 kmh 29.59 in1002.0 mb - 0.00 in0.0 mm 0.22 in5.6 mm
11:50 AM 62.3°F16.8°C 48.2°F9.0°C 60% 9.2 mph WSW14.8 kmh WSW 13.8 mph22.2 kmh 29.59 in1002.0 mb - 0.00 in0.0 mm 0.22 in5.6 mm
11:55 AM 62.6°F17.0°C 48.5°F9.2°C 60% 9.2 mph W14.8 kmh W 13.8 mph22.2 kmh 29.59 in1002.0 mb - 0.00 in0.0 mm 0.22 in5.6 mm
12:00 PM 63.3°F17.4°C 48.7°F9.3°C 59% 8.1 mph WSW13.0 kmh WSW 13.8 mph22.2 kmh 29.59 in1002.0 mb - 0.00 in0.0 mm 0.22 in5.6 mm
12:05 PM 63.7°F17.6°C 49.6°F9.8°C 60% 8.1 mph WSW13.0 kmh WSW 11.5 mph18.5 kmh 29.59 in1002.0 mb - 0.00 in0.0 mm 0.22 in5.6 mm
12:10 PM 63.9°F17.7°C 48.8°F9.3°C 58% 8.1 mph SW13.0 kmh SW 16.1 mph25.9 kmh 29.60 in1002.4 mb - 0.00 in0.0 mm 0.22 in5.6 mm
12:15 PM 63.5°F17.5°C 48.9°F9.4°C 59% 9.2 mph WSW14.8 kmh WSW 15.0 mph24.1 kmh 29.59 in1002.0 mb - 0.00 in0.0 mm 0.22 in5.6 mm
12:20 PM 63.1°F17.3°C 49.0°F9.4°C 60% 5.8 mph WSW9.3 kmh WSW 12.7 mph20.4 kmh 29.59 in1002.0 mb - 0.00 in0.0 mm 0.22 in5.6 mm
12:25 PM 63.2°F17.3°C 49.1°F9.5°C 60% 10.4 mph WSW16.7 kmh WSW 17.3 mph27.8 kmh 29.59 in1002.0 mb - 0.00 in0.0 mm 0.22 in5.6 mm
12:30 PM 63.8°F17.7°C 49.2°F9.6°C 59% 9.2 mph WSW14.8 kmh WSW 16.1 mph25.9 kmh 29.59 in1002.0 mb - 0.00 in0.0 mm 0.22 in5.6 mm
12:35 PM 64.3°F17.9°C 48.3°F9.1°C 56% 6.9 mph WSW11.1 kmh WSW 16.1 mph25.9 kmh 29.59 in1002.0 mb - 0.00 in0.0 mm 0.22 in5.6 mm
12:40 PM 64.8°F18.2°C 48.2°F9.0°C 55% 8.1 mph WSW13.0 kmh WSW 11.5 mph18.5 kmh 29.59 in1002.0 mb - 0.00 in0.0 mm 0.22 in5.6 mm
12:45 PM 65.2°F18.4°C 49.1°F9.5°C 56% 9.2 mph W14.8 kmh W 13.8 mph22.2 kmh 29.59 in1002.0 mb - 0.00 in0.0 mm 0.22 in5.6 mm
12:50 PM 65.3°F18.5°C 47.7°F8.7°C 53% 8.1 mph WSW13.0 kmh WSW 11.5 mph18.5 kmh 29.59 in1002.0 mb - 0.00 in0.0 mm 0.22 in5.6 mm
12:55 PM 65.0°F18.3°C 47.4°F8.6°C 53% 8.1 mph W13.0 kmh W 9.2 mph14.8 kmh 29.59 in1002.0 mb - 0.00 in0.0 mm 0.22 in5.6 mm
01:00 PM 65.2°F18.4°C 47.6°F8.7°C 53% 8.1 mph WSW13.0 kmh WSW 15.0 mph24.1 kmh 29.59 in1002.0 mb - 0.00 in0.0 mm 0.22 in5.6 mm
01:05 PM 65.0°F18.3°C 48.4°F9.1°C 55% 6.9 mph WSW11.1 kmh WSW 12.7 mph20.4 kmh 29.59 in1002.0 mb - 0.00 in0.0 mm 0.22 in5.6 mm
01:10 PM 64.7°F18.2°C 47.2°F8.4°C 53% 4.6 mph W7.4 kmh W 9.2 mph14.8 kmh 29.58 in1001.7 mb - 0.00 in0.0 mm 0.22 in5.6 mm
01:15 PM 64.5°F18.1°C 47.9°F8.8°C 55% 9.2 mph WSW14.8 kmh WSW 11.5 mph18.5 kmh 29.58 in1001.7 mb - 0.00 in0.0 mm 0.22 in5.6 mm
01:20 PM 64.2°F17.9°C 47.7°F8.7°C 55% 8.1 mph WSW13.0 kmh WSW 13.8 mph22.2 kmh 29.59 in1002.0 mb - 0.00 in0.0 mm 0.22 in5.6 mm
01:25 PM 63.9°F17.7°C 47.9°F8.8°C 56% 5.8 mph WSW9.3 kmh WSW 9.2 mph14.8 kmh 29.59 in1002.0 mb - 0.00 in0.0 mm 0.22 in5.6 mm
01:30 PM 64.0°F17.8°C 48.0°F8.9°C 56% 9.2 mph WSW14.8 kmh WSW 15.0 mph24.1 kmh 29.59 in1002.0 mb - 0.00 in0.0 mm 0.22 in5.6 mm
01:35 PM 64.2°F17.9°C 48.1°F8.9°C 56% 6.9 mph WSW11.1 kmh WSW 13.8 mph22.2 kmh 29.59 in1002.0 mb - 0.00 in0.0 mm 0.22 in5.6 mm
01:40 PM 64.1°F17.8°C 47.6°F8.7°C 55% 8.1 mph WSW13.0 kmh WSW 11.5 mph18.5 kmh 29.59 in1002.0 mb - 0.00 in0.0 mm 0.22 in5.6 mm
01:45 PM 63.8°F17.7°C 47.3°F8.5°C 55% 4.6 mph WSW7.4 kmh WSW 6.9 mph11.1 kmh 29.59 in1002.0 mb - 0.00 in0.0 mm 0.22 in5.6 mm
01:50 PM 63.5°F17.5°C 47.5°F8.6°C 56% 8.1 mph WSW13.0 kmh WSW 11.5 mph18.5 kmh 29.59 in1002.0 mb - 0.00 in0.0 mm 0.22 in5.6 mm
01:55 PM 62.9°F17.2°C 47.5°F8.6°C 57% 6.9 mph WSW11.1 kmh WSW 13.8 mph22.2 kmh 29.59 in1002.0 mb - 0.00 in0.0 mm 0.22 in5.6 mm
02:00 PM 62.5°F16.9°C 47.5°F8.6°C 58% 9.2 mph WSW14.8 kmh WSW 12.7 mph20.4 kmh 29.59 in1002.0 mb - 0.00 in0.0 mm 0.22 in5.6 mm
02:05 PM 62.3°F16.8°C 47.3°F8.5°C 58% 8.1 mph WSW13.0 kmh WSW 10.4 mph16.7 kmh 29.59 in1002.0 mb - 0.00 in0.0 mm 0.22 in5.6 mm
02:10 PM 62.2°F16.8°C 47.7°F8.7°C 59% 8.1 mph WSW13.0 kmh WSW 13.8 mph22.2 kmh 29.59 in1002.0 mb - 0.00 in0.0 mm 0.22 in5.6 mm
02:15 PM 62.2°F16.8°C 48.1°F8.9°C 60% 6.9 mph WSW11.1 kmh WSW 11.5 mph18.5 kmh 29.59 in1002.0 mb - 0.00 in0.0 mm 0.22 in5.6 mm
02:20 PM 62.1°F16.7°C 47.1°F8.4°C 58% 6.9 mph WSW11.1 kmh WSW 11.5 mph18.5 kmh 29.59 in1002.0 mb - 0.00 in0.0 mm 0.22 in5.6 mm
02:25 PM 62.0°F16.7°C 47.5°F8.6°C 59% 6.9 mph WSW11.1 kmh WSW 11.5 mph18.5 kmh 29.59 in1002.0 mb - 0.00 in0.0 mm 0.22 in5.6 mm
02:30 PM 61.9°F16.6°C 47.9°F8.8°C 60% 5.8 mph W9.3 kmh W 10.4 mph16.7 kmh 29.59 in1002.0 mb - 0.00 in0.0 mm 0.22 in5.6 mm
02:35 PM 61.7°F16.5°C 47.7°F8.7°C 60% 8.1 mph W13.0 kmh W 15.0 mph24.1 kmh 29.59 in1002.0 mb - 0.00 in0.0 mm 0.22 in5.6 mm
02:40 PM 61.5°F16.4°C 47.5°F8.6°C 60% 8.1 mph WSW13.0 kmh WSW 11.5 mph18.5 kmh 29.59 in1002.0 mb - 0.00 in0.0 mm 0.22 in5.6 mm
02:45 PM 61.3°F16.3°C 47.7°F8.7°C 61% 5.8 mph WSW9.3 kmh WSW 6.9 mph11.1 kmh 29.60 in1002.4 mb - 0.00 in0.0 mm 0.22 in5.6 mm
02:50 PM 61.2°F16.2°C 48.5°F9.2°C 63% 8.1 mph WSW13.0 kmh WSW 11.5 mph18.5 kmh 29.60 in1002.4 mb - 0.00 in0.0 mm 0.22 in5.6 mm
02:55 PM 60.9°F16.1°C 48.3°F9.1°C 63% 4.6 mph WSW7.4 kmh WSW 8.1 mph13.0 kmh 29.60 in1002.4 mb - 0.00 in0.0 mm 0.22 in5.6 mm
03:00 PM 60.9°F16.1°C 48.6°F9.2°C 64% 4.6 mph WSW7.4 kmh WSW 9.2 mph14.8 kmh 29.61 in1002.7 mb - 0.00 in0.0 mm 0.22 in5.6 mm
03:05 PM 60.9°F16.1°C 49.5°F9.7°C 66% 3.5 mph WSW5.6 kmh WSW 4.6 mph7.4 kmh 29.61 in1002.7 mb - 0.00 in0.0 mm 0.22 in5.6 mm
03:10 PM 60.8°F16.0°C 49.4°F9.7°C 66% 3.5 mph W5.6 kmh W 3.5 mph5.6 kmh 29.61 in1002.7 mb - 0.00 in0.0 mm 0.22 in5.6 mm
03:15 PM 60.8°F16.0°C 49.0°F9.4°C 65% 4.6 mph WSW7.4 kmh WSW 9.2 mph14.8 kmh 29.61 in1002.7 mb - 0.00 in0.0 mm 0.22 in5.6 mm
03:20 PM 60.6°F15.9°C 48.7°F9.3°C 65% 3.5 mph WSW5.6 kmh WSW 5.8 mph9.3 kmh 29.61 in1002.7 mb - 0.00 in0.0 mm 0.22 in5.6 mm
03:25 PM 60.4°F15.8°C 49.0°F9.4°C 66% 4.6 mph WSW7.4 kmh WSW 10.4 mph16.7 kmh 29.61 in1002.7 mb - 0.00 in0.0 mm 0.22 in5.6 mm
03:30 PM 60.3°F15.7°C 49.3°F9.6°C 67% 2.3 mph WSW3.7 kmh WSW 3.5 mph5.6 kmh 29.61 in1002.7 mb - 0.00 in0.0 mm 0.22 in5.6 mm
03:35 PM 60.3°F15.7°C 49.7°F9.8°C 68% 4.6 mph WSW7.4 kmh WSW 10.4 mph16.7 kmh 29.61 in1002.7 mb - 0.00 in0.0 mm 0.22 in5.6 mm
03:40 PM 60.2°F15.7°C 49.2°F9.6°C 67% 3.5 mph WSW5.6 kmh WSW 6.9 mph11.1 kmh 29.61 in1002.7 mb - 0.00 in0.0 mm 0.22 in5.6 mm
03:45 PM 60.2°F15.7°C 49.2°F9.6°C 67% 5.8 mph WSW9.3 kmh WSW 9.2 mph14.8 kmh 29.60 in1002.4 mb - 0.00 in0.0 mm 0.22 in5.6 mm
03:50 PM 60.2°F15.7°C 49.2°F9.6°C 67% 3.5 mph SW5.6 kmh SW 6.9 mph11.1 kmh 29.61 in1002.7 mb - 0.00 in0.0 mm 0.22 in5.6 mm
03:55 PM 60.1°F15.6°C 49.1°F9.5°C 67% 3.5 mph WSW5.6 kmh WSW 6.9 mph11.1 kmh 29.61 in1002.7 mb - 0.00 in0.0 mm 0.22 in5.6 mm
04:00 PM 60.1°F15.6°C 49.5°F9.7°C 68% 5.8 mph WSW9.3 kmh WSW 8.1 mph13.0 kmh 29.61 in1002.7 mb - 0.00 in0.0 mm 0.22 in5.6 mm
04:05 PM 60.2°F15.7°C 49.2°F9.6°C 67% 3.5 mph WSW5.6 kmh WSW 4.6 mph7.4 kmh 29.61 in1002.7 mb - 0.00 in0.0 mm 0.22 in5.6 mm
04:10 PM 60.3°F15.7°C 49.7°F9.8°C 68% 1.2 mph W1.9 kmh W 3.5 mph5.6 kmh 29.61 in1002.7 mb - 0.00 in0.0 mm 0.22 in5.6 mm
04:15 PM 60.5°F15.8°C 49.9°F9.9°C 68% 2.3 mph WSW3.7 kmh WSW 3.5 mph5.6 kmh 29.61 in1002.7 mb - 0.00 in0.0 mm 0.22 in5.6 mm
04:20 PM 60.8°F16.0°C 50.2°F10.1°C 68% 4.6 mph W7.4 kmh W 8.1 mph13.0 kmh 29.61 in1002.7 mb - 0.00 in0.0 mm 0.22 in5.6 mm
04:25 PM 61.1°F16.2°C 50.1°F10.1°C 67% 3.5 mph W5.6 kmh W 6.9 mph11.1 kmh 29.61 in1002.7 mb - 0.00 in0.0 mm 0.22 in5.6 mm
04:30 PM 61.5°F16.4°C 50.0°F10.0°C 66% 5.8 mph W9.3 kmh W 11.5 mph18.5 kmh 29.61 in1002.7 mb - 0.00 in0.0 mm 0.22 in5.6 mm
04:35 PM 61.8°F16.6°C 49.5°F9.7°C 64% 8.1 mph W13.0 kmh W 11.5 mph18.5 kmh 29.61 in1002.7 mb - 0.00 in0.0 mm 0.22 in5.6 mm
04:40 PM 62.2°F16.8°C 49.4°F9.7°C 63% 3.5 mph WSW5.6 kmh WSW 10.4 mph16.7 kmh 29.61 in1002.7 mb - 0.00 in0.0 mm 0.22 in5.6 mm
04:45 PM 62.3°F16.8°C 48.6°F9.2°C 61% 9.2 mph SW14.8 kmh SW 12.7 mph20.4 kmh 29.61 in1002.7 mb - 0.00 in0.0 mm 0.22 in5.6 mm
04:50 PM 62.1°F16.7°C 48.1°F8.9°C 60% 4.6 mph SW7.4 kmh SW 4.6 mph7.4 kmh 29.61 in1002.7 mb - 0.00 in0.0 mm 0.22 in5.6 mm
04:55 PM 62.1°F16.7°C 48.9°F9.4°C 62% 6.9 mph WSW11.1 kmh WSW 11.5 mph18.5 kmh 29.61 in1002.7 mb - 0.00 in0.0 mm 0.22 in5.6 mm
05:00 PM 62.2°F16.8°C 49.0°F9.4°C 62% 6.9 mph WSW11.1 kmh WSW 11.5 mph18.5 kmh 29.61 in1002.7 mb - 0.00 in0.0 mm 0.22 in5.6 mm
05:05 PM 62.2°F16.8°C 49.0°F9.4°C 62% 5.8 mph WSW9.3 kmh WSW 11.5 mph18.5 kmh 29.61 in1002.7 mb - 0.00 in0.0 mm 0.22 in5.6 mm
05:10 PM 62.0°F16.7°C 48.8°F9.3°C 62% 5.8 mph W9.3 kmh W 6.9 mph11.1 kmh 29.61 in1002.7 mb - 0.00 in0.0 mm 0.22 in5.6 mm
05:15 PM 62.0°F16.7°C 48.4°F9.1°C 61% 5.8 mph WSW9.3 kmh WSW 11.5 mph18.5 kmh 29.61 in1002.7 mb - 0.00 in0.0 mm 0.22 in5.6 mm
05:20 PM 61.9°F16.6°C 48.7°F9.3°C 62% 5.8 mph WSW9.3 kmh WSW 10.4 mph16.7 kmh 29.61 in1002.7 mb - 0.00 in0.0 mm 0.22 in5.6 mm
05:25 PM 61.8°F16.6°C 48.2°F9.0°C 61% 4.6 mph WSW7.4 kmh WSW 8.1 mph13.0 kmh 29.61 in1002.7 mb - 0.00 in0.0 mm 0.22 in5.6 mm
05:30 PM 61.9°F16.6°C 48.3°F9.1°C 61% 4.6 mph W7.4 kmh W 10.4 mph16.7 kmh 29.61 in1002.7 mb - 0.00 in0.0 mm 0.22 in5.6 mm
05:35 PM 61.9°F16.6°C 47.9°F8.8°C 60% 5.8 mph WSW9.3 kmh WSW 9.2 mph14.8 kmh 29.61 in1002.7 mb - 0.00 in0.0 mm 0.22 in5.6 mm
05:40 PM 62.0°F16.7°C 48.0°F8.9°C 60% 3.5 mph W5.6 kmh W 3.5 mph5.6 kmh 29.61 in1002.7 mb - 0.00 in0.0 mm 0.22 in5.6 mm
05:45 PM 62.2°F16.8°C 48.6°F9.2°C 61% 3.5 mph W5.6 kmh W 3.5 mph5.6 kmh 29.61 in1002.7 mb - 0.00 in0.0 mm 0.22 in5.6 mm
05:50 PM 62.4°F16.9°C 48.8°F9.3°C 61% 4.6 mph W7.4 kmh W 9.2 mph14.8 kmh 29.61 in1002.7 mb - 0.00 in0.0 mm 0.22 in5.6 mm
05:55 PM 62.4°F16.9°C 47.9°F8.8°C 59% 5.8 mph W9.3 kmh W 8.1 mph13.0 kmh 29.61 in1002.7 mb - 0.00 in0.0 mm 0.22 in5.6 mm
06:00 PM 62.3°F16.8°C 47.3°F8.5°C 58% 3.5 mph WSW5.6 kmh WSW 8.1 mph13.0 kmh 29.61 in1002.7 mb - 0.00 in0.0 mm 0.22 in5.6 mm
06:05 PM 62.2°F16.8°C 47.7°F8.7°C 59% 3.5 mph WSW5.6 kmh WSW 4.6 mph7.4 kmh 29.61 in1002.7 mb - 0.00 in0.0 mm 0.22 in5.6 mm
06:10 PM 62.2°F16.8°C 48.1°F8.9°C 60% 1.2 mph W1.9 kmh W 5.8 mph9.3 kmh 29.61 in1002.7 mb - 0.00 in0.0 mm 0.22 in5.6 mm
06:15 PM 62.3°F16.8°C 48.2°F9.0°C 60% 4.6 mph WSW7.4 kmh WSW 8.1 mph13.0 kmh 29.61 in1002.7 mb - 0.00 in0.0 mm 0.22 in5.6 mm
06:20 PM 62.3°F16.8°C 47.8°F8.8°C 59% 2.3 mph W3.7 kmh W 6.9 mph11.1 kmh 29.61 in1002.7 mb - 0.00 in0.0 mm 0.22 in5.6 mm
06:25 PM 62.3°F16.8°C 49.1°F9.5°C 62% 4.6 mph W7.4 kmh W 6.9 mph11.1 kmh 29.61 in1002.7 mb - 0.00 in0.0 mm 0.22 in5.6 mm
06:30 PM 62.3°F16.8°C 49.2°F9.6°C 62% 3.5 mph WSW5.6 kmh WSW 8.1 mph13.0 kmh 29.61 in1002.7 mb - 0.00 in0.0 mm 0.22 in5.6 mm
06:35 PM 62.4°F16.9°C 48.3°F9.1°C 60% 6.9 mph WSW11.1 kmh WSW 10.4 mph16.7 kmh 29.61 in1002.7 mb - 0.00 in0.0 mm 0.22 in5.6 mm
06:40 PM 62.5°F16.9°C 48.4°F9.1°C 60% 3.5 mph W5.6 kmh W 6.9 mph11.1 kmh 29.61 in1002.7 mb - 0.00 in0.0 mm 0.22 in5.6 mm
06:45 PM 62.6°F17.0°C 48.5°F9.2°C 60% 4.6 mph WSW7.4 kmh WSW 9.2 mph14.8 kmh 29.61 in1002.7 mb - 0.00 in0.0 mm 0.22 in5.6 mm
06:50 PM 62.3°F16.8°C 48.6°F9.2°C 61% 5.8 mph SW9.3 kmh SW 9.2 mph14.8 kmh 29.62 in1003.0 mb - 0.00 in0.0 mm 0.22 in5.6 mm
06:55 PM 61.8°F16.6°C 49.1°F9.5°C 63% 5.8 mph SW9.3 kmh SW 11.5 mph18.5 kmh 29.62 in1003.0 mb - 0.00 in0.0 mm 0.22 in5.6 mm
07:00 PM 61.4°F16.3°C 49.1°F9.5°C 64% 3.5 mph SW5.6 kmh SW 6.9 mph11.1 kmh 29.62 in1003.0 mb - 0.00 in0.0 mm 0.22 in5.6 mm
07:05 PM 61.1°F16.2°C 49.2°F9.6°C 65% 2.3 mph WSW3.7 kmh WSW 3.5 mph5.6 kmh 29.62 in1003.0 mb - 0.00 in0.0 mm 0.22 in5.6 mm
07:10 PM 60.8°F16.0°C 48.9°F9.4°C 65% 2.3 mph SW3.7 kmh SW 4.6 mph7.4 kmh 29.62 in1003.0 mb - 0.00 in0.0 mm 0.22 in5.6 mm
07:15 PM 60.4°F15.8°C 49.0°F9.4°C 66% 2.3 mph SW3.7 kmh SW 4.6 mph7.4 kmh 29.62 in1003.0 mb - 0.00 in0.0 mm 0.22 in5.6 mm
07:20 PM 60.3°F15.7°C 48.9°F9.4°C 66% 2.3 mph SW3.7 kmh SW 3.5 mph5.6 kmh 29.61 in1002.7 mb - 0.00 in0.0 mm 0.22 in5.6 mm
07:25 PM 60.0°F15.6°C 49.0°F9.4°C 67% 3.5 mph WSW5.6 kmh WSW 3.5 mph5.6 kmh 29.62 in1003.0 mb - 0.00 in0.0 mm 0.22 in5.6 mm
07:30 PM 59.8°F15.4°C 48.8°F9.3°C 67% 4.6 mph W7.4 kmh W 6.9 mph11.1 kmh 29.62 in1003.0 mb - 0.00 in0.0 mm 0.22 in5.6 mm
07:35 PM 59.6°F15.3°C 48.2°F9.0°C 66% 3.5 mph WSW5.6 kmh WSW 5.8 mph9.3 kmh 29.62 in1003.0 mb - 0.00 in0.0 mm 0.22 in5.6 mm
07:40 PM 59.4°F15.2°C 48.4°F9.1°C 67% Calm Calm 2.3 mph3.7 kmh 29.62 in1003.0 mb - 0.00 in0.0 mm 0.22 in5.6 mm
07:45 PM 59.3°F15.2°C 48.7°F9.3°C 68% 1.2 mph W1.9 kmh W 2.3 mph3.7 kmh 29.62 in1003.0 mb - 0.00 in0.0 mm 0.22 in5.6 mm
07:50 PM 59.1°F15.1°C 48.5°F9.2°C 68% 1.2 mph W1.9 kmh W 2.3 mph3.7 kmh 29.61 in1002.7 mb - 0.00 in0.0 mm 0.22 in5.6 mm
07:55 PM 58.9°F14.9°C 48.4°F9.1°C 68% 1.2 mph W1.9 kmh W 2.3 mph3.7 kmh 29.61 in1002.7 mb - 0.00 in0.0 mm 0.22 in5.6 mm
08:00 PM 58.7°F14.8°C 48.6°F9.2°C 69% Calm Calm 1.2 mph1.9 kmh 29.61 in1002.7 mb - 0.00 in0.0 mm 0.22 in5.6 mm
08:05 PM 58.4°F14.7°C 48.3°F9.1°C 69% Calm Calm -- 29.62 in1003.0 mb - 0.00 in0.0 mm 0.22 in5.6 mm
08:10 PM 58.2°F14.6°C 48.1°F8.9°C 69% Calm Calm -- 29.62 in1003.0 mb - 0.00 in0.0 mm 0.22 in5.6 mm
08:15 PM 58.0°F14.4°C 47.9°F8.8°C 69% Calm Calm -- 29.62 in1003.0 mb - 0.00 in0.0 mm 0.22 in5.6 mm
08:20 PM 57.6°F14.2°C 48.2°F9.0°C 71% Calm Calm -- 29.62 in1003.0 mb - 0.00 in0.0 mm 0.22 in5.6 mm
08:25 PM 57.0°F13.9°C 47.7°F8.7°C 71% 2.3 mph WNW3.7 kmh WNW 3.5 mph5.6 kmh 29.62 in1003.0 mb - 0.00 in0.0 mm 0.22 in5.6 mm
08:30 PM 56.5°F13.6°C 47.2°F8.4°C 71% 2.3 mph WNW3.7 kmh WNW 3.5 mph5.6 kmh 29.63 in1003.4 mb - 0.00 in0.0 mm 0.22 in5.6 mm
08:35 PM 56.1°F13.4°C 47.2°F8.4°C 72% 1.2 mph WNW1.9 kmh WNW 2.3 mph3.7 kmh 29.63 in1003.4 mb - 0.00 in0.0 mm 0.22 in5.6 mm
08:40 PM 55.7°F13.2°C 46.8°F8.2°C 72% 1.2 mph WNW1.9 kmh WNW 2.3 mph3.7 kmh 29.63 in1003.4 mb - 0.00 in0.0 mm 0.22 in5.6 mm
08:45 PM 55.1°F12.8°C 46.6°F8.1°C 73% 2.3 mph W3.7 kmh W 3.5 mph5.6 kmh 29.63 in1003.4 mb - 0.00 in0.0 mm 0.22 in5.6 mm
08:50 PM 54.8°F12.7°C 46.7°F8.2°C 74% 2.3 mph W3.7 kmh W 8.1 mph13.0 kmh 29.63 in1003.4 mb - 0.00 in0.0 mm 0.22 in5.6 mm
08:55 PM 54.4°F12.4°C 45.9°F7.7°C 73% 2.3 mph W3.7 kmh W 3.5 mph5.6 kmh 29.63 in1003.4 mb - 0.00 in0.0 mm 0.22 in5.6 mm
09:00 PM 54.2°F12.3°C 45.7°F7.6°C 73% 1.2 mph W1.9 kmh W 2.3 mph3.7 kmh 29.64 in1003.7 mb - 0.00 in0.0 mm 0.22 in5.6 mm
09:05 PM 54.1°F12.3°C 46.0°F7.8°C 74% Calm Calm 1.2 mph1.9 kmh 29.64 in1003.7 mb - 0.00 in0.0 mm 0.22 in5.6 mm
09:10 PM 54.0°F12.2°C 46.3°F7.9°C 75% 2.3 mph W3.7 kmh W 2.3 mph3.7 kmh 29.64 in1003.7 mb - 0.00 in0.0 mm 0.22 in5.6 mm
09:15 PM 53.9°F12.2°C 45.8°F7.7°C 74% 2.3 mph W3.7 kmh W 3.5 mph5.6 kmh 29.64 in1003.7 mb - 0.00 in0.0 mm 0.22 in5.6 mm
09:20 PM 54.0°F12.2°C 46.2°F7.9°C 75% 1.2 mph WSW1.9 kmh WSW 3.5 mph5.6 kmh 29.64 in1003.7 mb - 0.00 in0.0 mm 0.22 in5.6 mm
09:25 PM 54.0°F12.2°C 46.3°F7.9°C 75% 1.2 mph NW1.9 kmh NW 2.3 mph3.7 kmh 29.64 in1003.7 mb - 0.00 in0.0 mm 0.22 in5.6 mm
09:30 PM 54.1°F12.3°C 46.7°F8.2°C 76% Calm Calm -- 29.64 in1003.7 mb - 0.00 in0.0 mm 0.22 in5.6 mm
09:35 PM 54.1°F12.3°C 46.7°F8.2°C 76% Calm Calm -- 29.64 in1003.7 mb - 0.00 in0.0 mm 0.22 in5.6 mm
09:40 PM 54.2°F12.3°C 46.4°F8.0°C 75% Calm Calm 2.3 mph3.7 kmh 29.64 in1003.7 mb - 0.00 in0.0 mm 0.22 in5.6 mm
09:45 PM 54.1°F12.3°C 46.3°F7.9°C 75% 2.3 mph N3.7 kmh N 3.5 mph5.6 kmh 29.64 in1003.7 mb - 0.00 in0.0 mm 0.22 in5.6 mm
09:50 PM 54.1°F12.3°C 46.0°F7.8°C 74% 2.3 mph NNE3.7 kmh NNE 3.5 mph5.6 kmh 29.64 in1003.7 mb - 0.00 in0.0 mm 0.22 in5.6 mm
09:55 PM 54.1°F12.3°C 46.3°F7.9°C 75% 2.3 mph N3.7 kmh N 3.5 mph5.6 kmh 29.64 in1003.7 mb - 0.00 in0.0 mm 0.22 in5.6 mm
10:00 PM 54.1°F12.3°C 46.4°F8.0°C 75% 3.5 mph NNE5.6 kmh NNE 6.9 mph11.1 kmh 29.64 in1003.7 mb - 0.00 in0.0 mm 0.22 in5.6 mm
10:05 PM 54.1°F12.3°C 46.3°F7.9°C 75% 3.5 mph N5.6 kmh N 6.9 mph11.1 kmh 29.65 in1004.1 mb - 0.00 in0.0 mm 0.22 in5.6 mm
10:10 PM 54.1°F12.3°C 46.7°F8.2°C 76% 3.5 mph NE5.6 kmh NE 5.8 mph9.3 kmh 29.65 in1004.1 mb - 0.00 in0.0 mm 0.22 in5.6 mm
10:15 PM 54.2°F12.3°C 46.4°F8.0°C 75% 2.3 mph N3.7 kmh N 3.5 mph5.6 kmh 29.65 in1004.1 mb - 0.00 in0.0 mm 0.22 in5.6 mm
10:20 PM 54.2°F12.3°C 46.4°F8.0°C 75% 3.5 mph N5.6 kmh N 4.6 mph7.4 kmh 29.65 in1004.1 mb - 0.00 in0.0 mm 0.22 in5.6 mm
10:25 PM 54.1°F12.3°C 46.3°F7.9°C 75% 3.5 mph NNE5.6 kmh NNE 4.6 mph7.4 kmh 29.65 in1004.1 mb - 0.00 in0.0 mm 0.22 in5.6 mm
10:30 PM 54.1°F12.3°C 46.3°F7.9°C 75% 1.2 mph NNE1.9 kmh NNE 4.6 mph7.4 kmh 29.65 in1004.1 mb - 0.00 in0.0 mm 0.22 in5.6 mm
10:35 PM 54.1°F12.3°C 46.3°F7.9°C 75% 1.2 mph N1.9 kmh N 2.3 mph3.7 kmh 29.65 in1004.1 mb - 0.00 in0.0 mm 0.22 in5.6 mm
10:40 PM 54.0°F12.2°C 46.3°F7.9°C 75% 1.2 mph NE1.9 kmh NE 2.3 mph3.7 kmh 29.65 in1004.1 mb - 0.00 in0.0 mm 0.22 in5.6 mm
10:45 PM 53.9°F12.2°C 46.5°F8.1°C 76% Calm Calm -- 29.65 in1004.1 mb - 0.00 in0.0 mm 0.22 in5.6 mm
10:50 PM 53.6°F12.0°C 46.2°F7.9°C 76% 2.3 mph NE3.7 kmh NE 3.5 mph5.6 kmh 29.66 in1004.4 mb - 0.00 in0.0 mm 0.22 in5.6 mm
10:55 PM 53.3°F11.8°C 46.6°F8.1°C 78% 2.3 mph ENE3.7 kmh ENE 3.5 mph5.6 kmh 29.66 in1004.4 mb - 0.00 in0.0 mm 0.22 in5.6 mm
11:00 PM 53.1°F11.7°C 46.8°F8.2°C 79% Calm Calm 1.2 mph1.9 kmh 29.66 in1004.4 mb - 0.00 in0.0 mm 0.29 in7.4 mm
11:05 PM 52.8°F11.6°C 46.5°F8.1°C 79% 1.2 mph ENE1.9 kmh ENE 3.5 mph5.6 kmh 29.66 in1004.4 mb - 0.00 in0.0 mm 0.29 in7.4 mm
11:10 PM 52.6°F11.4°C 46.6°F8.1°C 80% 2.3 mph ENE3.7 kmh ENE 2.3 mph3.7 kmh 29.66 in1004.4 mb - 0.00 in0.0 mm 0.29 in7.4 mm
11:15 PM 52.4°F11.3°C 46.4°F8.0°C 80% 2.3 mph ENE3.7 kmh ENE 3.5 mph5.6 kmh 29.66 in1004.4 mb - 0.00 in0.0 mm 0.29 in7.4 mm
11:20 PM 52.3°F11.3°C 46.3°F7.9°C 80% 1.2 mph ENE1.9 kmh ENE 1.2 mph1.9 kmh 29.66 in1004.4 mb - 0.00 in0.0 mm 0.29 in7.4 mm
11:25 PM 51.9°F11.1°C 45.9°F7.7°C 80% 1.2 mph ENE1.9 kmh ENE 1.2 mph1.9 kmh 29.66 in1004.4 mb - 0.00 in0.0 mm 0.29 in7.4 mm
11:30 PM 51.6°F10.9°C 46.0°F7.8°C 81% Calm Calm -- 29.66 in1004.4 mb - 0.00 in0.0 mm 0.29 in7.4 mm
11:35 PM 51.2°F10.7°C 45.5°F7.5°C 81% 1.2 mph ENE1.9 kmh ENE 3.5 mph5.6 kmh 29.66 in1004.4 mb - 0.00 in0.0 mm 0.29 in7.4 mm
11:40 PM 50.8°F10.4°C 45.2°F7.3°C 81% 1.2 mph ENE1.9 kmh ENE 2.3 mph3.7 kmh 29.66 in1004.4 mb - 0.00 in0.0 mm 0.29 in7.4 mm
11:45 PM 50.5°F10.3°C 45.2°F7.3°C 82% 1.2 mph ENE1.9 kmh ENE 2.3 mph3.7 kmh 29.65 in1004.1 mb - 0.00 in0.0 mm 0.29 in7.4 mm
11:50 PM 50.3°F10.2°C 45.0°F7.2°C 82% Calm Calm -- 29.65 in1004.1 mb - 0.00 in0.0 mm 0.29 in7.4 mm
11:55 PM 50.0°F10.0°C 45.1°F7.3°C 83% Calm Calm -- 29.66 in1004.4 mb - 0.00 in0.0 mm 0.29 in7.4 mm